createdAt,value
2018-05-24T00:01:27.054Z,100655
2018-05-24T00:03:56.282Z,100652
2018-05-24T00:06:25.126Z,100649
2018-05-24T00:08:53.963Z,100653
2018-05-24T00:11:22.829Z,100657
2018-05-24T00:13:51.669Z,100645
2018-05-24T00:16:20.523Z,100645
2018-05-24T00:18:49.358Z,100639
2018-05-24T00:21:18.211Z,100643
2018-05-24T00:23:47.049Z,100640
2018-05-24T00:26:15.909Z,100643
2018-05-24T00:28:44.738Z,100646
2018-05-24T00:31:13.623Z,100650
2018-05-24T00:33:42.459Z,100650
2018-05-24T00:36:11.311Z,100647
2018-05-24T00:38:40.203Z,100637
2018-05-24T00:41:09.068Z,100637
2018-05-24T00:43:37.920Z,100644
2018-05-24T00:46:06.777Z,100639
2018-05-24T00:48:35.618Z,100637
2018-05-24T00:51:04.470Z,100637
2018-05-24T00:53:33.312Z,100625
2018-05-24T00:56:02.191Z,100629
2018-05-24T00:58:31.028Z,100628
2018-05-24T01:01:00.621Z,100629
2018-05-24T01:03:29.463Z,100624
2018-05-24T01:05:58.310Z,100617
2018-05-24T01:08:27.903Z,100613
2018-05-24T01:10:57.347Z,100608
2018-05-24T01:13:26.193Z,100615
2018-05-24T01:15:55.131Z,100622
2018-05-24T01:18:23.899Z,100625
2018-05-24T01:20:52.750Z,100625
2018-05-24T01:23:21.582Z,100637
2018-05-24T01:25:51.170Z,100629
2018-05-24T01:28:20.759Z,100622
2018-05-24T01:30:49.601Z,100618
2018-05-24T01:33:18.446Z,100620
2018-05-24T01:35:47.318Z,100618
2018-05-24T01:38:16.209Z,100618
2018-05-24T01:40:45.052Z,100629
2018-05-24T01:43:13.887Z,100631
2018-05-24T01:45:42.741Z,100624
2018-05-24T01:48:11.579Z,100634
2018-05-24T01:50:40.439Z,100626
2018-05-24T01:53:09.275Z,100625
2018-05-24T01:55:38.114Z,100624
2018-05-24T01:58:06.961Z,100627
2018-05-24T02:00:35.801Z,100608
2018-05-24T02:03:04.654Z,100623
2018-05-24T02:05:33.495Z,100614
2018-05-24T02:08:02.354Z,100615
2018-05-24T02:10:31.192Z,100610
2018-05-24T02:13:00.059Z,100604
2018-05-24T02:15:28.915Z,100608
2018-05-24T02:17:57.771Z,100603
2018-05-24T02:20:26.613Z,100604
2018-05-24T02:22:55.469Z,100609
2018-05-24T02:25:24.306Z,100615
2018-05-24T02:27:53.148Z,100615
2018-05-24T02:30:21.988Z,100614
2018-05-24T02:32:50.847Z,100614
2018-05-24T02:35:19.687Z,100616
2018-05-24T02:37:48.572Z,100620
2018-05-24T02:40:17.410Z,100624
2018-05-24T02:42:46.273Z,100625
2018-05-24T02:45:15.852Z,100631
2018-05-24T02:47:44.721Z,100669
2018-05-24T02:50:13.555Z,100633
2018-05-24T02:52:43.144Z,100638
2018-05-24T02:55:11.981Z,100635
2018-05-24T02:57:40.832Z,100638
2018-05-24T03:00:09.677Z,100645
2018-05-24T03:02:38.527Z,100643
2018-05-24T03:05:07.376Z,100642
2018-05-24T03:07:36.233Z,100649
2018-05-24T03:10:05.071Z,100644
2018-05-24T03:12:33.935Z,100633
2018-05-24T03:15:02.781Z,100637
2018-05-24T03:17:31.624Z,100638
2018-05-24T03:20:00.544Z,100636
2018-05-24T03:22:29.312Z,100639
2018-05-24T03:24:58.145Z,100632
2018-05-24T03:27:27.002Z,100625
2018-05-24T03:29:56.588Z,100621
2018-05-24T03:32:25.438Z,100621
2018-05-24T03:34:54.271Z,100620
2018-05-24T03:37:23.170Z,100619
2018-05-24T03:39:52.005Z,100619
2018-05-24T03:42:20.855Z,100614
2018-05-24T03:44:49.706Z,100617
2018-05-24T03:47:18.558Z,100614
2018-05-24T03:49:47.397Z,100606
2018-05-24T03:52:16.263Z,100614
2018-05-24T03:54:45.103Z,100611
2018-05-24T03:57:14.689Z,100614
2018-05-24T04:02:45.340Z,100609
2018-05-24T04:05:14.197Z,100619
2018-05-24T04:07:43.033Z,100605
2018-05-24T04:10:11.860Z,100594
2018-05-24T04:12:40.710Z,100597
2018-05-24T04:15:09.572Z,100599
2018-05-24T04:17:38.480Z,100605
2018-05-24T04:20:07.310Z,100606
2018-05-24T04:22:36.168Z,100608
2018-05-24T04:25:05.022Z,100612
2018-05-24T04:27:33.875Z,100610
2018-05-24T04:30:02.711Z,100618
2018-05-24T04:32:31.549Z,100620
2018-05-24T04:35:00.400Z,100615
2018-05-24T04:37:29.251Z,100618
2018-05-24T04:39:58.090Z,100618
2018-05-24T04:42:27.687Z,100629
2018-05-24T04:44:56.517Z,100636
2018-05-24T04:47:25.380Z,100643
2018-05-24T04:49:54.241Z,100648
2018-05-24T04:52:23.094Z,100648
2018-05-24T04:54:51.921Z,100644
2018-05-24T04:57:20.750Z,100644
2018-05-24T04:59:50.354Z,100653
2018-05-24T05:02:19.922Z,100652
2018-05-24T05:04:48.784Z,100642
2018-05-24T05:07:17.608Z,100651
2018-05-24T05:09:46.478Z,100655
2018-05-24T05:12:15.325Z,100654
2018-05-24T05:14:44.955Z,100653
2018-05-24T05:17:13.780Z,100655
2018-05-24T05:19:42.598Z,100654
2018-05-24T05:22:12.203Z,100653
2018-05-24T05:27:10.669Z,100658
2018-05-24T05:29:39.516Z,100662
2018-05-24T05:32:08.348Z,100674
2018-05-24T05:34:37.199Z,100684
2018-05-24T05:37:06.126Z,100680
2018-05-24T05:39:34.980Z,100675
2018-05-24T05:42:03.816Z,100670
2018-05-24T05:44:32.669Z,100680
2018-05-24T05:47:01.510Z,100675
2018-05-24T05:49:30.422Z,100678
2018-05-24T05:51:59.302Z,100679
2018-05-24T05:54:28.124Z,100678
2018-05-24T05:56:56.965Z,100680
2018-05-24T05:59:25.818Z,100673
2018-05-24T06:01:54.717Z,100674
2018-05-24T06:04:24.267Z,100671
2018-05-24T06:06:53.127Z,100670
2018-05-24T06:09:21.979Z,100675
2018-05-24T06:11:50.817Z,100678
2018-05-24T06:14:19.674Z,100675
2018-05-24T06:16:48.509Z,100674
2018-05-24T06:19:17.363Z,100673
2018-05-24T06:21:46.193Z,100676
2018-05-24T06:24:15.040Z,100679
2018-05-24T06:26:43.890Z,100682
2018-05-24T06:29:12.793Z,100680
2018-05-24T06:31:41.605Z,100676
2018-05-24T06:34:10.445Z,100677
2018-05-24T06:36:40.032Z,100686
2018-05-24T06:39:08.883Z,100686
2018-05-24T06:41:37.728Z,100698
2018-05-24T06:44:06.588Z,100696
2018-05-24T06:46:36.346Z,100697
2018-05-24T06:49:05.155Z,100710
2018-05-24T06:51:34.006Z,100709
2018-05-24T06:54:03.602Z,100708
2018-05-24T06:56:32.478Z,100704
2018-05-24T06:59:02.088Z,100710
2018-05-24T07:01:30.929Z,100718
2018-05-24T07:03:59.767Z,100713
2018-05-24T07:06:28.616Z,100711
2018-05-24T07:08:57.489Z,100711
2018-05-24T07:11:26.345Z,100708
2018-05-24T07:13:55.225Z,100717
2018-05-24T07:16:24.057Z,100709
2018-05-24T07:18:52.908Z,100712
2018-05-24T07:21:21.753Z,100702
2018-05-24T07:23:50.593Z,100696
2018-05-24T07:26:20.023Z,100701
2018-05-24T07:28:48.981Z,100702
2018-05-24T07:31:18.478Z,100698
2018-05-24T07:33:47.334Z,100699
2018-05-24T07:36:16.177Z,100690
2018-05-24T07:38:45.760Z,100686
2018-05-24T07:41:14.613Z,100697
2018-05-24T07:43:43.454Z,100691
2018-05-24T07:46:13.057Z,100688
2018-05-24T07:48:41.887Z,100707
2018-05-24T07:51:10.746Z,100698
2018-05-24T07:53:40.320Z,100691
2018-05-24T07:56:09.189Z,100687
2018-05-24T07:58:38.041Z,100695
2018-05-24T08:01:07.640Z,100697
2018-05-24T08:03:37.212Z,100694
2018-05-24T08:06:06.065Z,100685
2018-05-24T08:08:34.989Z,100688
2018-05-24T08:11:03.785Z,100699
2018-05-24T08:13:32.619Z,100690
2018-05-24T08:16:01.469Z,100687
2018-05-24T08:18:30.311Z,100683
2018-05-24T08:20:59.171Z,100683
2018-05-24T08:23:28.010Z,100688
2018-05-24T08:25:56.878Z,100679
2018-05-24T08:28:25.710Z,100681
2018-05-24T08:30:54.584Z,100680
2018-05-24T08:33:23.417Z,100674
2018-05-24T08:35:53.012Z,100676
2018-05-24T08:38:21.894Z,100678
2018-05-24T08:40:50.834Z,100680
2018-05-24T08:43:19.578Z,100676
2018-05-24T08:45:48.440Z,100674
2018-05-24T08:48:17.282Z,100684
2018-05-24T08:50:46.865Z,100688
2018-05-24T08:53:16.532Z,100687
2018-05-24T08:55:45.302Z,100688
2018-05-24T08:58:14.243Z,100689
2018-05-24T09:00:43.095Z,100695
2018-05-24T09:03:11.935Z,100700
2018-05-24T09:05:40.788Z,100694
2018-05-24T09:08:09.636Z,100691
2018-05-24T09:10:39.227Z,100682
2018-05-24T09:13:08.810Z,100689
2018-05-24T09:15:37.670Z,100690
2018-05-24T09:18:06.618Z,100683
2018-05-24T09:20:35.480Z,100693
2018-05-24T09:23:04.335Z,100701
2018-05-24T09:25:33.186Z,100694
2018-05-24T09:28:02.767Z,100689
2018-05-24T09:30:31.623Z,100691
2018-05-24T09:33:00.473Z,100692
2018-05-24T09:35:29.344Z,100692
2018-05-24T09:37:58.174Z,100693
2018-05-24T09:40:27.038Z,100694
2018-05-24T09:42:55.901Z,100693
2018-05-24T09:45:24.752Z,100689
2018-05-24T09:47:53.599Z,100691
2018-05-24T09:50:22.443Z,100694
2018-05-24T09:52:51.291Z,100695
2018-05-24T09:55:20.177Z,100690
2018-05-24T09:57:49.000Z,100688
2018-05-24T10:00:17.840Z,100689
2018-05-24T10:02:46.705Z,100693
2018-05-24T10:05:15.547Z,100694
2018-05-24T10:07:44.405Z,100687
2018-05-24T10:10:13.249Z,100685
2018-05-24T10:12:42.104Z,100685
2018-05-24T10:15:11.686Z,100689
2018-05-24T10:17:40.540Z,100685
2018-05-24T10:20:09.379Z,100685
2018-05-24T10:22:38.989Z,100683
2018-05-24T10:25:07.825Z,100678
2018-05-24T10:27:36.668Z,100678
2018-05-24T10:30:05.524Z,100674
2018-05-24T10:32:34.373Z,100681
2018-05-24T10:35:03.219Z,100676
2018-05-24T10:37:32.114Z,100671
2018-05-24T10:40:00.953Z,100669
2018-05-24T10:42:29.804Z,100668
2018-05-24T10:44:58.664Z,100665
2018-05-24T10:47:27.502Z,100657
2018-05-24T10:49:56.338Z,100651
2018-05-24T10:52:25.182Z,100652
2018-05-24T10:54:54.017Z,100652
2018-05-24T10:57:22.867Z,100650
2018-05-24T10:59:51.711Z,100642
2018-05-24T11:02:20.578Z,100635
2018-05-24T11:04:49.416Z,100635
2018-05-24T11:07:19.020Z,100637
2018-05-24T11:09:47.856Z,100623
2018-05-24T11:12:16.718Z,100629
2018-05-24T11:14:45.552Z,100624
2018-05-24T11:17:14.404Z,100626
2018-05-24T11:19:43.249Z,100623
2018-05-24T11:22:12.099Z,100623
2018-05-24T11:24:40.941Z,100620
2018-05-24T11:27:09.794Z,100614
2018-05-24T11:29:38.625Z,100621
2018-05-24T11:32:07.502Z,100601
2018-05-24T11:34:36.308Z,100615
2018-05-24T11:37:05.228Z,100614
2018-05-24T11:39:34.018Z,100616
2018-05-24T11:42:02.870Z,100609
2018-05-24T11:44:32.546Z,100608
2018-05-24T11:47:01.289Z,100611
2018-05-24T11:49:30.122Z,100610
2018-05-24T11:51:59.035Z,100619
2018-05-24T11:54:27.830Z,100609
2018-05-24T11:56:56.686Z,100598
2018-05-24T11:59:25.557Z,100597
2018-05-24T12:01:54.427Z,100596
2018-05-24T12:04:23.233Z,100598
2018-05-24T12:06:52.096Z,100601
2018-05-24T12:09:20.947Z,100600
2018-05-24T12:11:49.803Z,100599
2018-05-24T12:14:18.641Z,100592
2018-05-24T12:16:48.255Z,100590
2018-05-24T12:19:17.854Z,100593
2018-05-24T12:21:46.720Z,100591
2018-05-24T12:24:15.570Z,100596
2018-05-24T12:26:44.421Z,100594
2018-05-24T12:29:13.433Z,100599
2018-05-24T12:31:42.112Z,100594
2018-05-24T12:34:11.694Z,100597
2018-05-24T12:36:40.545Z,100597
2018-05-24T12:39:09.486Z,100594
2018-05-24T12:41:39.056Z,100580
2018-05-24T12:44:07.914Z,100578
2018-05-24T12:46:36.761Z,100583
2018-05-24T12:49:05.629Z,100576
2018-05-24T12:51:34.464Z,100567
2018-05-24T12:54:03.305Z,100568
2018-05-24T12:56:32.137Z,100569
2018-05-24T12:59:01.004Z,100564
2018-05-24T13:01:29.834Z,100559
2018-05-24T13:03:58.691Z,100559
2018-05-24T13:06:27.526Z,100550
2018-05-24T13:08:56.387Z,100548
2018-05-24T13:11:25.962Z,100553
2018-05-24T13:13:54.937Z,100539
2018-05-24T13:16:23.757Z,100534
2018-05-24T13:18:52.622Z,100531
2018-05-24T13:21:21.477Z,100526
2018-05-24T13:23:50.329Z,100518
2018-05-24T13:26:19.162Z,100511
2018-05-24T13:28:48.024Z,100507
2018-05-24T13:31:17.598Z,100509
2018-05-24T13:33:46.452Z,100512
2018-05-24T13:36:15.290Z,100516
2018-05-24T13:38:44.198Z,100518
2018-05-24T13:41:13.040Z,100519
2018-05-24T13:43:41.897Z,100519
2018-05-24T13:46:10.744Z,100519
2018-05-24T13:48:39.595Z,100519
2018-05-24T13:51:08.438Z,100532
2018-05-24T13:53:37.301Z,100528
2018-05-24T13:56:06.120Z,100527
2018-05-24T13:58:34.975Z,100519
2018-05-24T14:01:03.854Z,100526
2018-05-24T14:03:33.429Z,100522
2018-05-24T14:06:02.260Z,100528
2018-05-24T14:08:31.102Z,100526
2018-05-24T14:10:59.936Z,100532
2018-05-24T14:13:28.833Z,100526
2018-05-24T14:15:57.634Z,100526
2018-05-24T14:18:26.558Z,100540
2018-05-24T14:20:55.409Z,100530
2018-05-24T14:23:24.242Z,100529
2018-05-24T14:25:53.815Z,100527
2018-05-24T14:28:22.677Z,100518
2018-05-24T14:30:51.505Z,100505
2018-05-24T14:33:20.355Z,100494
2018-05-24T14:35:49.186Z,100497
2018-05-24T14:38:18.047Z,100496
2018-05-24T14:40:46.886Z,100494
2018-05-24T14:43:15.745Z,100486
2018-05-24T14:45:44.584Z,100494
2018-05-24T14:48:13.464Z,100492
2018-05-24T14:50:42.330Z,100491
2018-05-24T14:53:11.246Z,100486
2018-05-24T14:55:40.792Z,100490
2018-05-24T14:58:09.639Z,100484
2018-05-24T15:00:38.533Z,100483
2018-05-24T15:03:07.381Z,100481
2018-05-24T15:05:36.237Z,100483
2018-05-24T15:08:05.074Z,100478
2018-05-24T15:10:33.950Z,100479
2018-05-24T15:13:02.785Z,100480
2018-05-24T15:15:31.637Z,100483
2018-05-24T15:18:00.483Z,100483
2018-05-24T15:20:29.333Z,100482
2018-05-24T15:22:58.923Z,100481
2018-05-24T15:25:27.790Z,100489
2018-05-24T15:27:56.596Z,100481
2018-05-24T15:30:25.448Z,100489
2018-05-24T15:32:54.277Z,100485
2018-05-24T15:35:23.150Z,100487
2018-05-24T15:37:51.976Z,100490
2018-05-24T15:40:20.819Z,100488
2018-05-24T15:42:49.668Z,100485
2018-05-24T15:45:18.532Z,100480
2018-05-24T15:47:48.101Z,100483
2018-05-24T15:50:16.953Z,100489
2018-05-24T15:52:45.793Z,100489
2018-05-24T15:55:14.623Z,100487
2018-05-24T15:57:44.206Z,100478
2018-05-24T16:00:13.064Z,100474
2018-05-24T16:02:41.897Z,100484
2018-05-24T16:05:11.497Z,100483
2018-05-24T16:07:40.320Z,100479
2018-05-24T16:10:09.196Z,100486
2018-05-24T16:12:38.009Z,100481
2018-05-24T16:15:06.860Z,100479
2018-05-24T16:17:35.727Z,100475
2018-05-24T16:20:04.575Z,100472
2018-05-24T16:22:33.408Z,100467
2018-05-24T16:25:02.285Z,100465
2018-05-24T16:27:31.089Z,100466
2018-05-24T16:29:59.933Z,100462
2018-05-24T16:32:28.774Z,100461
2018-05-24T16:34:57.612Z,100465
2018-05-24T16:37:26.486Z,100466
2018-05-24T16:39:55.378Z,100465
2018-05-24T16:42:24.166Z,100465
2018-05-24T16:44:53.002Z,100464
2018-05-24T16:47:21.854Z,100456
2018-05-24T16:49:50.689Z,100462
2018-05-24T16:52:19.532Z,100461
2018-05-24T16:54:48.374Z,100457
2018-05-24T16:57:17.205Z,100468
2018-05-24T16:59:46.070Z,100467
2018-05-24T17:02:14.904Z,100468
2018-05-24T17:04:43.795Z,100467
2018-05-24T17:07:12.583Z,100469
2018-05-24T17:09:41.424Z,100465
2018-05-24T17:12:10.269Z,100467
2018-05-24T17:14:39.092Z,100461
2018-05-24T17:17:07.939Z,100469
2018-05-24T17:19:36.793Z,100474
2018-05-24T17:22:06.376Z,100476
2018-05-24T17:24:35.205Z,100478
2018-05-24T17:27:04.077Z,100473
2018-05-24T17:29:32.909Z,100476
2018-05-24T17:32:01.766Z,100483
2018-05-24T17:34:30.591Z,100481
2018-05-24T17:36:59.440Z,100487
2018-05-24T17:39:29.014Z,100488
2018-05-24T17:41:57.861Z,100491
2018-05-24T17:44:26.680Z,100488
2018-05-24T17:46:55.514Z,100489
2018-05-24T17:49:25.093Z,100486
2018-05-24T17:51:53.948Z,100495
2018-05-24T17:54:22.782Z,100485
2018-05-24T17:56:51.651Z,100495
2018-05-24T17:59:20.466Z,100493
2018-05-24T18:01:49.324Z,100494
2018-05-24T18:04:18.173Z,100491
2018-05-24T18:06:47.757Z,100493
2018-05-24T18:09:16.623Z,100499
2018-05-24T18:11:45.470Z,100494
2018-05-24T18:14:14.535Z,100493
2018-05-24T18:16:43.164Z,100497
2018-05-24T18:19:12.099Z,100507
2018-05-24T18:21:40.937Z,100504
2018-05-24T18:24:09.770Z,100508
2018-05-24T18:26:38.613Z,100515
2018-05-24T18:29:08.182Z,100500
2018-05-24T18:31:37.033Z,100511
2018-05-24T18:34:05.866Z,100509
2018-05-24T18:36:34.704Z,100510
2018-05-24T18:39:03.764Z,100521
2018-05-24T18:41:32.383Z,100515
2018-05-24T18:44:01.215Z,100520
2018-05-24T18:46:30.083Z,100518
2018-05-24T18:48:58.927Z,100517
2018-05-24T18:51:27.800Z,100520
2018-05-24T18:53:56.623Z,100576
2018-05-24T18:56:25.477Z,100533
2018-05-24T18:58:54.316Z,100531
2018-05-24T19:01:23.166Z,100533
2018-05-24T19:03:52.579Z,100536
2018-05-24T19:06:21.446Z,100538
2018-05-24T19:08:50.294Z,100538
2018-05-24T19:11:19.151Z,100536
2018-05-24T19:13:47.986Z,100536
2018-05-24T19:16:16.838Z,100545
2018-05-24T19:18:45.670Z,100544
2018-05-24T19:21:14.536Z,100548
2018-05-24T19:23:43.372Z,100549
2018-05-24T19:26:12.214Z,100551
2018-05-24T19:28:41.055Z,100554
2018-05-24T19:31:09.902Z,100552
2018-05-24T19:33:38.735Z,100555
2018-05-24T19:36:07.591Z,100560
2018-05-24T19:38:36.419Z,100556
2018-05-24T19:41:05.267Z,100559
2018-05-24T19:43:34.128Z,100553
2018-05-24T19:46:03.007Z,100557
2018-05-24T19:48:31.823Z,100556
2018-05-24T19:51:00.698Z,100555
2018-05-24T19:53:29.519Z,100560
2018-05-24T19:55:58.353Z,100552
2018-05-24T19:58:27.250Z,100556
2018-05-24T20:00:56.057Z,100561
2018-05-24T20:03:24.904Z,100563
2018-05-24T20:06:06.463Z,100567
2018-05-24T20:08:35.311Z,100574
2018-05-24T20:11:04.131Z,100579
2018-05-24T20:13:32.975Z,100575
2018-05-24T20:16:01.821Z,100583
2018-05-24T20:18:30.677Z,100580
2018-05-24T20:20:59.504Z,100589
2018-05-24T20:23:28.352Z,100589
2018-05-24T20:25:57.928Z,100593
2018-05-24T20:28:26.788Z,100590
2018-05-24T20:30:55.616Z,100596
2018-05-24T20:33:24.475Z,100588
2018-05-24T20:35:53.306Z,100596
2018-05-24T20:38:22.163Z,100590
2018-05-24T20:40:50.984Z,100592
2018-05-24T20:43:19.823Z,100588
2018-05-24T20:45:48.660Z,100587
2018-05-24T20:48:17.517Z,100583
2018-05-24T20:50:46.344Z,100582
2018-05-24T20:53:15.192Z,100583
2018-05-24T20:55:44.038Z,100583
2018-05-24T20:58:12.874Z,100590
2018-05-24T21:00:41.719Z,100589
2018-05-24T21:03:11.315Z,100590
2018-05-24T21:05:40.159Z,100592
2018-05-24T21:08:09.005Z,100591
2018-05-24T21:10:37.855Z,100590
2018-05-24T21:13:06.687Z,100590
2018-05-24T21:15:35.526Z,100586
2018-05-24T21:18:04.446Z,100583
2018-05-24T21:20:33.281Z,100587
2018-05-24T21:23:02.130Z,100582
2018-05-24T21:25:30.968Z,100574
2018-05-24T21:27:59.813Z,100572
2018-05-24T21:30:28.680Z,100569
2018-05-24T21:32:57.484Z,100571
2018-05-24T21:35:26.331Z,100588
2018-05-24T21:37:55.229Z,100589
2018-05-24T21:40:24.766Z,100597
2018-05-24T21:42:53.611Z,100599
2018-05-24T21:45:22.455Z,100598
2018-05-24T21:47:51.295Z,100601
2018-05-24T21:50:20.133Z,100604
2018-05-24T21:52:48.999Z,100609
2018-05-24T21:55:17.837Z,100590
2018-05-24T21:57:47.430Z,100599
2018-05-24T22:00:16.270Z,100599
2018-05-24T22:02:45.123Z,100599
2018-05-24T22:05:13.990Z,100600
2018-05-24T22:07:42.836Z,100601
2018-05-24T22:10:11.682Z,100591
2018-05-24T22:12:40.531Z,100602
2018-05-24T22:15:09.377Z,100595
2018-05-24T22:17:38.960Z,100600
2018-05-24T22:20:07.806Z,100593
2018-05-24T22:22:36.653Z,100587
2018-05-24T22:25:05.495Z,100597
2018-05-24T22:27:34.331Z,100601
2018-05-24T22:30:03.199Z,100601
2018-05-24T22:32:32.045Z,100608
2018-05-24T22:35:00.904Z,100603
2018-05-24T22:37:30.485Z,100610
2018-05-24T22:39:59.339Z,100601
2018-05-24T22:42:28.182Z,100603
2018-05-24T22:44:57.080Z,100599
2018-05-24T22:47:26.658Z,100594
2018-05-24T22:49:55.517Z,100610
2018-05-24T22:52:24.361Z,100598
2018-05-24T22:54:53.256Z,100599
2018-05-24T22:57:22.829Z,100598
2018-05-24T22:59:51.698Z,100601
2018-05-24T23:02:20.533Z,100598
2018-05-24T23:04:49.406Z,100591
2018-05-24T23:07:18.248Z,100594
2018-05-24T23:09:47.094Z,100592
2018-05-24T23:12:15.928Z,100593
2018-05-24T23:14:44.776Z,100589
2018-05-24T23:17:13.640Z,100596
2018-05-24T23:19:42.488Z,100595
2018-05-24T23:22:12.303Z,100592
2018-05-24T23:24:41.895Z,100599
2018-05-24T23:27:11.470Z,100593
2018-05-24T23:29:40.320Z,100602
2018-05-24T23:32:09.171Z,100596
2018-05-24T23:34:38.013Z,100606
2018-05-24T23:37:06.856Z,100605
2018-05-24T23:39:35.721Z,100607
2018-05-24T23:42:04.552Z,100608
2018-05-24T23:44:33.404Z,100596
2018-05-24T23:47:02.237Z,100605
2018-05-24T23:49:31.090Z,100607
2018-05-24T23:51:59.928Z,100606
2018-05-24T23:54:28.776Z,100609
2018-05-24T23:56:57.616Z,100604
2018-05-24T23:59:26.445Z,100600
